CST8 weather

Montreal / Marina Venise Seaplane Base
Montréal, Quebec, Canada

Public forecast

Using degrees Celsius for public forecast. Weather courtesy of forecast.io.

Closest aviation weather report (METAR) to Montreal / Marina Venise Seaplane Base

Closest report is Montreal / Pierre Elliott Trudeau International Airport, 9.9 nm (18.3 km) S. Retrieved 2020/01/23 07:00 UTC (21 minutes ago):

CYUL 230700Z 19004KT 15SM SCT240 M06/M08 A3027 RMK CI4 SLP254

Closest aviation forecast (TAF) to Montreal / Marina Venise Seaplane Base

Closest forecast is Montreal / Pierre Elliott Trudeau International Airport, 9.9 nm (18.3 km) S. Retrieved 2020/01/23 09:42 UTC (0 seconds ago):

TAF CYUL 230838Z 2309/2406 21010KT P6SM FEW070 BKN220 FM231100 23010KT P6SM SCT030 BKN180 FM231800 23010KT P6SM BKN160 BECMG 2322/2324 VRB03KT FM240500 08005KT P6SM FEW030 BKN100 RMK NXT FCST BY 231200Z